createdAt,value
2022-12-03T00:02:22.359Z,81.24
2022-12-03T00:05:33.912Z,81.04
2022-12-03T00:08:45.564Z,81.28
2022-12-03T00:12:02.020Z,80.69
2022-12-03T00:15:26.863Z,80.95
2022-12-03T00:19:15.188Z,80.97
2022-12-03T00:22:55.716Z,81.50
2022-12-03T00:26:14.654Z,81.42
2022-12-03T00:29:35.983Z,80.84
2022-12-03T00:32:44.107Z,81.42
2022-12-03T00:36:09.419Z,81.63
2022-12-03T00:39:32.251Z,81.39
2022-12-03T00:42:49.394Z,81.57
2022-12-03T00:46:22.120Z,81.88
2022-12-03T00:49:38.521Z,82.36
2022-12-03T00:53:01.588Z,82.52
2022-12-03T00:56:28.616Z,81.90
2022-12-03T00:59:59.917Z,81.76
2022-12-03T01:03:07.023Z,82.45
2022-12-03T01:06:18.899Z,82.38
2022-12-03T01:09:24.702Z,82.55
2022-12-03T01:12:38.620Z,82.70
2022-12-03T01:16:04.853Z,82.83
2022-12-03T01:19:25.068Z,82.35
2022-12-03T01:22:48.049Z,83.01
2022-12-03T01:26:10.041Z,82.41
2022-12-03T01:29:27.901Z,82.52
2022-12-03T01:32:50.960Z,81.79
2022-12-03T01:39:38.140Z,83.29
2022-12-03T01:42:48.955Z,82.71
2022-12-03T01:46:16.027Z,82.56
2022-12-03T01:50:00.124Z,82.11
2022-12-03T01:53:15.676Z,81.64
2022-12-03T01:56:30.671Z,81.56
2022-12-03T01:59:40.030Z,82.00
2022-12-03T02:02:45.570Z,81.38
2022-12-03T02:05:55.403Z,81.63
2022-12-03T02:09:10.674Z,81.28
2022-12-03T02:12:32.777Z,83.73
2022-12-03T02:15:53.592Z,83.13
2022-12-03T02:19:15.594Z,83.07
2022-12-03T02:22:38.628Z,82.82
2022-12-03T02:25:50.772Z,81.85
2022-12-03T02:28:57.524Z,81.94
2022-12-03T02:32:02.754Z,82.04
2022-12-03T02:35:21.201Z,81.99
2022-12-03T02:38:27.071Z,81.90
2022-12-03T02:42:05.471Z,81.73
2022-12-03T02:45:25.403Z,82.54
2022-12-03T02:48:40.988Z,82.20
2022-12-03T02:51:56.956Z,81.55
2022-12-03T02:55:30.712Z,81.81
2022-12-03T02:58:56.014Z,82.23
2022-12-03T03:02:26.988Z,82.01
2022-12-03T03:05:41.825Z,81.61
2022-12-03T03:09:01.185Z,81.35
2022-12-03T03:12:11.963Z,82.08
2022-12-03T03:15:24.579Z,81.92
2022-12-03T03:18:33.704Z,81.67
2022-12-03T03:21:47.701Z,82.24
2022-12-03T03:25:06.108Z,82.17
2022-12-03T03:28:25.668Z,81.62
2022-12-03T03:31:51.774Z,81.65
2022-12-03T03:35:13.923Z,82.19
2022-12-03T03:38:34.870Z,82.06
2022-12-03T03:41:56.911Z,81.61
2022-12-03T03:45:29.138Z,81.23
2022-12-03T03:48:52.514Z,81.69
2022-12-03T03:52:16.219Z,81.74
2022-12-03T03:55:29.699Z,82.34
2022-12-03T03:58:53.785Z,81.32
2022-12-03T04:02:27.289Z,80.73
2022-12-03T04:05:42.464Z,81.11
2022-12-03T04:08:57.772Z,80.83
2022-12-03T04:12:25.792Z,80.38
2022-12-03T04:15:44.793Z,80.15
2022-12-03T04:19:02.828Z,80.31
2022-12-03T04:22:45.558Z,80.52
2022-12-03T04:26:44.277Z,80.19
2022-12-03T04:30:07.450Z,79.38
2022-12-03T04:33:43.087Z,79.71
2022-12-03T04:36:54.148Z,79.79
2022-12-03T04:40:39.443Z,79.88
2022-12-03T04:44:37.635Z,80.53
2022-12-03T04:47:44.187Z,80.04
2022-12-03T04:50:57.505Z,80.84
2022-12-03T04:54:11.902Z,81.50
2022-12-03T04:57:19.244Z,80.80
2022-12-03T05:00:29.523Z,80.40
2022-12-03T05:03:47.436Z,80.83
2022-12-03T05:07:06.687Z,80.92
2022-12-03T05:10:36.972Z,82.38
2022-12-03T05:13:54.322Z,81.91
2022-12-03T05:17:17.251Z,82.47
2022-12-03T05:20:51.465Z,81.77
2022-12-03T05:24:08.908Z,81.38
2022-12-03T05:27:24.192Z,81.42
2022-12-03T05:30:50.399Z,81.20
2022-12-03T05:34:09.319Z,80.45
2022-12-03T05:37:31.591Z,81.41
2022-12-03T05:40:53.686Z,81.51
2022-12-03T05:44:20.812Z,82.41
2022-12-03T05:47:37.244Z,81.04
2022-12-03T05:51:00.395Z,81.85
2022-12-03T05:54:07.694Z,81.41
2022-12-03T05:57:32.314Z,81.54
2022-12-03T06:01:10.606Z,81.29
2022-12-03T06:04:26.383Z,81.51
2022-12-03T06:07:50.637Z,81.17
2022-12-03T06:11:16.415Z,80.93
2022-12-03T06:14:40.431Z,80.83
2022-12-03T06:17:57.537Z,81.08
2022-12-03T06:21:24.047Z,80.98
2022-12-03T06:24:40.253Z,80.49
2022-12-03T06:28:04.539Z,80.69
2022-12-03T06:31:19.341Z,80.32
2022-12-03T06:34:27.805Z,80.33
2022-12-03T06:37:33.995Z,80.30
2022-12-03T06:40:46.126Z,80.59
2022-12-03T06:44:11.317Z,80.37
2022-12-03T06:47:33.254Z,80.23
2022-12-03T06:50:50.839Z,80.52
2022-12-03T06:54:12.807Z,80.65
2022-12-03T06:57:23.786Z,80.52
2022-12-03T07:00:41.907Z,80.66
2022-12-03T07:04:07.265Z,79.97
2022-12-03T07:07:15.514Z,78.88
2022-12-03T07:10:32.228Z,78.98
2022-12-03T07:13:48.994Z,79.48
2022-12-03T07:17:01.574Z,78.79
2022-12-03T07:20:22.358Z,79.06
2022-12-03T07:23:35.649Z,80.14
2022-12-03T07:26:42.635Z,79.97
2022-12-03T07:29:56.548Z,80.04
2022-12-03T07:33:05.685Z,79.83
2022-12-03T07:36:23.937Z,79.09
2022-12-03T07:39:43.242Z,79.13
2022-12-03T07:43:11.746Z,79.74
2022-12-03T07:46:23.210Z,78.39
2022-12-03T07:49:52.922Z,78.85
2022-12-03T07:53:16.914Z,78.89
2022-12-03T07:56:38.990Z,78.82
2022-12-03T08:00:01.302Z,78.95
2022-12-03T08:03:26.519Z,79.06
2022-12-03T08:06:51.521Z,79.13
2022-12-03T08:10:08.366Z,77.73
2022-12-03T08:13:32.010Z,77.69
2022-12-03T08:16:41.145Z,78.09
2022-12-03T08:19:50.930Z,78.34
2022-12-03T08:23:07.011Z,77.80
2022-12-03T08:26:35.331Z,77.52
2022-12-03T08:29:48.193Z,77.65
2022-12-03T08:32:59.943Z,78.08
2022-12-03T08:36:23.950Z,77.11
2022-12-03T08:39:48.610Z,77.26
2022-12-03T08:43:04.299Z,76.89
2022-12-03T08:46:32.129Z,77.01
2022-12-03T08:50:09.954Z,77.15
2022-12-03T08:53:50.104Z,77.09
2022-12-03T08:57:45.485Z,77.69
2022-12-03T09:01:11.895Z,75.91
2022-12-03T09:04:44.851Z,75.71
2022-12-03T09:08:03.957Z,75.83
2022-12-03T09:11:33.774Z,75.76
2022-12-03T09:15:09.450Z,75.32
2022-12-03T09:18:19.625Z,75.71
2022-12-03T09:21:30.585Z,75.93
2022-12-03T09:24:34.403Z,75.66
2022-12-03T09:27:45.020Z,76.71
2022-12-03T09:30:51.838Z,75.08
2022-12-03T09:33:56.591Z,74.41
2022-12-03T09:37:04.260Z,74.72
2022-12-03T09:40:24.552Z,73.71
2022-12-03T09:44:04.036Z,73.44
2022-12-03T09:47:13.027Z,73.12
2022-12-03T09:50:35.040Z,72.62
2022-12-03T09:53:52.760Z,72.34
2022-12-03T09:57:18.677Z,72.81
2022-12-03T10:00:42.698Z,71.97
2022-12-03T10:04:08.183Z,71.61
2022-12-03T10:07:21.194Z,72.24
2022-12-03T10:10:40.267Z,70.55
2022-12-03T10:13:51.812Z,70.69
2022-12-03T10:17:18.580Z,69.18
2022-12-03T10:20:37.885Z,70.17
2022-12-03T10:24:17.827Z,69.97
2022-12-03T10:27:37.895Z,69.58
2022-12-03T10:31:01.725Z,69.20
2022-12-03T10:34:24.873Z,70.37
2022-12-03T10:37:50.071Z,70.97
2022-12-03T10:41:24.094Z,71.36
2022-12-03T10:44:33.850Z,71.50
2022-12-03T10:48:17.858Z,72.26
2022-12-03T10:51:29.298Z,72.61
2022-12-03T10:54:51.588Z,72.16
2022-12-03T10:57:59.920Z,72.58
2022-12-03T11:01:22.827Z,72.96
2022-12-03T11:04:39.807Z,71.72
2022-12-03T11:07:57.050Z,70.44
2022-12-03T11:11:45.057Z,70.52
2022-12-03T11:15:06.843Z,69.81
2022-12-03T11:18:09.918Z,69.26
2022-12-03T11:21:25.485Z,69.25
2022-12-03T11:24:44.767Z,68.58
2022-12-03T11:28:42.533Z,68.71
2022-12-03T11:31:59.931Z,68.25
2022-12-03T11:35:37.470Z,67.09
2022-12-03T11:39:15.480Z,66.63
2022-12-03T11:42:38.323Z,66.02
2022-12-03T11:46:07.420Z,65.33
2022-12-03T11:49:35.720Z,65.06
2022-12-03T11:52:49.741Z,65.18
2022-12-03T11:56:16.771Z,64.32
2022-12-03T11:59:39.810Z,64.86
2022-12-03T12:02:57.497Z,65.30
2022-12-03T12:06:26.930Z,65.76
2022-12-03T12:09:54.806Z,66.42
2022-12-03T12:13:04.173Z,64.98
2022-12-03T12:16:38.830Z,64.38
2022-12-03T12:19:54.644Z,64.66
2022-12-03T12:23:25.437Z,64.15
2022-12-03T12:26:39.445Z,64.91
2022-12-03T12:29:59.313Z,64.11
2022-12-03T12:33:23.605Z,65.53
2022-12-03T12:36:42.360Z,65.21
2022-12-03T12:39:55.206Z,65.45
2022-12-03T12:43:25.155Z,66.27
2022-12-03T12:46:48.884Z,67.14
2022-12-03T12:50:11.346Z,67.50
2022-12-03T12:53:37.463Z,66.83
2022-12-03T12:56:58.968Z,67.19
2022-12-03T13:00:24.584Z,67.15
2022-12-03T13:03:49.596Z,67.64
2022-12-03T13:06:57.168Z,67.29
2022-12-03T13:10:35.277Z,67.77
2022-12-03T13:14:03.959Z,68.29
2022-12-03T13:17:24.792Z,68.04
2022-12-03T13:20:31.640Z,67.62
2022-12-03T13:23:52.358Z,67.38
2022-12-03T13:27:17.369Z,67.62
2022-12-03T13:30:43.554Z,67.53
2022-12-03T13:34:15.482Z,68.13
2022-12-03T13:37:37.116Z,68.56
2022-12-03T13:40:44.995Z,67.91
2022-12-03T13:43:53.419Z,68.17
2022-12-03T13:47:12.213Z,68.34
2022-12-03T13:50:32.282Z,68.27
2022-12-03T13:53:40.601Z,68.23
2022-12-03T13:56:54.363Z,67.62
2022-12-03T14:00:11.107Z,68.08
2022-12-03T14:03:32.746Z,68.62
2022-12-03T14:06:54.914Z,68.84
2022-12-03T14:10:19.045Z,69.23
2022-12-03T14:13:42.079Z,69.35
2022-12-03T14:17:03.234Z,69.24
2022-12-03T14:20:21.908Z,69.42
2022-12-03T14:23:44.007Z,69.32
2022-12-03T14:27:12.145Z,69.66
2022-12-03T14:30:15.177Z,69.42
2022-12-03T14:33:18.940Z,69.00
2022-12-03T14:36:40.450Z,69.40
2022-12-03T14:39:49.427Z,69.25
2022-12-03T14:43:14.201Z,69.61
2022-12-03T14:46:37.879Z,69.65
2022-12-03T14:50:20.990Z,70.10
2022-12-03T14:54:05.303Z,70.24
2022-12-03T14:57:16.982Z,70.69
2022-12-03T15:00:24.022Z,71.25
2022-12-03T15:03:30.614Z,71.60
2022-12-03T15:06:58.756Z,72.06
2022-12-03T15:10:17.753Z,71.80
2022-12-03T15:13:41.025Z,71.92
2022-12-03T15:16:50.789Z,71.59
2022-12-03T15:20:14.524Z,72.67
2022-12-03T15:23:40.863Z,72.83
2022-12-03T15:27:05.432Z,73.01
2022-12-03T15:30:26.658Z,72.62
2022-12-03T15:33:48.498Z,73.63
2022-12-03T15:37:09.554Z,73.69
2022-12-03T15:40:35.833Z,72.71
2022-12-03T15:44:04.569Z,74.06
2022-12-03T15:47:24.769Z,73.37
2022-12-03T15:50:47.453Z,74.33
2022-12-03T15:53:55.879Z,74.88
2022-12-03T15:57:19.704Z,74.29
2022-12-03T16:00:35.909Z,75.31
2022-12-03T16:03:52.301Z,74.83
2022-12-03T16:07:17.683Z,75.17
2022-12-03T16:10:33.616Z,74.90
2022-12-03T16:13:37.543Z,75.83
2022-12-03T16:16:53.796Z,76.73
2022-12-03T16:20:23.086Z,76.93
2022-12-03T16:23:47.710Z,76.75
2022-12-03T16:26:58.682Z,77.00
2022-12-03T16:30:03.925Z,76.65
2022-12-03T16:33:10.521Z,77.06
2022-12-03T16:36:19.755Z,77.13
2022-12-03T16:39:36.818Z,77.40
2022-12-03T16:42:42.326Z,77.42
2022-12-03T16:46:21.754Z,77.35
2022-12-03T16:49:46.548Z,77.16
2022-12-03T16:53:03.878Z,77.39
2022-12-03T16:56:15.710Z,77.28
2022-12-03T16:59:27.018Z,77.52
2022-12-03T17:02:40.384Z,77.79
2022-12-03T17:05:44.999Z,77.11
2022-12-03T17:09:01.524Z,76.49
2022-12-03T17:13:08.317Z,76.95
2022-12-03T17:16:13.404Z,77.12
2022-12-03T17:19:25.955Z,77.50
2022-12-03T17:22:40.346Z,77.20
2022-12-03T17:25:57.660Z,77.12
2022-12-03T17:29:18.804Z,76.94
2022-12-03T17:32:35.575Z,77.16
2022-12-03T17:36:02.952Z,77.02
2022-12-03T17:39:19.538Z,77.62
2022-12-03T17:42:52.266Z,77.88
2022-12-03T17:46:20.103Z,78.14
2022-12-03T17:49:38.524Z,77.86
2022-12-03T17:52:58.684Z,78.04
2022-12-03T17:56:17.857Z,78.03
2022-12-03T17:59:41.436Z,78.10
2022-12-03T18:03:04.481Z,78.02
2022-12-03T18:06:30.544Z,78.72
2022-12-03T18:09:53.017Z,78.41
2022-12-03T18:13:14.227Z,77.98
2022-12-03T18:16:35.647Z,78.33
2022-12-03T18:19:55.715Z,78.24
2022-12-03T18:23:12.605Z,78.33
2022-12-03T18:26:27.101Z,78.65
2022-12-03T18:29:31.928Z,78.38
2022-12-03T18:32:54.097Z,78.26
2022-12-03T18:36:06.713Z,78.05
2022-12-03T18:39:38.018Z,78.47
2022-12-03T18:42:41.193Z,78.22
2022-12-03T18:45:56.717Z,79.04
2022-12-03T18:49:05.406Z,78.61
2022-12-03T18:52:14.876Z,78.61
2022-12-03T18:55:23.542Z,78.84
2022-12-03T18:58:45.300Z,78.48
2022-12-03T19:02:05.396Z,79.84
2022-12-03T19:05:29.434Z,79.34
2022-12-03T19:08:59.308Z,78.93
2022-12-03T19:12:15.011Z,78.94
2022-12-03T19:15:33.583Z,79.11
2022-12-03T19:18:55.430Z,79.74
2022-12-03T19:22:20.210Z,80.14
2022-12-03T19:25:41.307Z,80.99
2022-12-03T19:28:57.264Z,80.89
2022-12-03T19:32:24.376Z,81.65
2022-12-03T19:35:46.551Z,81.52
2022-12-03T19:39:10.218Z,81.22
2022-12-03T19:42:36.974Z,81.53
2022-12-03T19:45:55.583Z,80.96
2022-12-03T19:49:12.539Z,81.03
2022-12-03T19:52:26.279Z,80.93
2022-12-03T19:55:52.397Z,80.87
2022-12-03T19:59:14.572Z,81.31
2022-12-03T20:02:38.421Z,80.91
2022-12-03T20:05:46.041Z,80.72
2022-12-03T20:09:06.346Z,80.68
2022-12-03T20:12:14.083Z,80.72
2022-12-03T20:15:30.147Z,81.46
2022-12-03T20:18:53.142Z,81.07
2022-12-03T20:22:11.127Z,81.23
2022-12-03T20:25:37.066Z,80.79
2022-12-03T20:28:53.238Z,80.86
2022-12-03T20:32:21.111Z,81.04
2022-12-03T20:35:24.351Z,81.19
2022-12-03T20:38:53.030Z,81.13
2022-12-03T20:42:29.980Z,80.80
2022-12-03T20:45:55.038Z,80.84
2022-12-03T20:49:17.076Z,80.21
2022-12-03T20:52:36.256Z,80.39
2022-12-03T20:56:04.107Z,79.59
2022-12-03T20:59:23.672Z,79.66
2022-12-03T21:02:43.127Z,80.00
2022-12-03T21:06:07.249Z,79.97
2022-12-03T21:09:25.186Z,80.16
2022-12-03T21:12:48.321Z,79.73
2022-12-03T21:16:16.300Z,80.15
2022-12-03T21:19:39.290Z,79.65
2022-12-03T21:22:58.250Z,79.46
2022-12-03T21:26:18.366Z,80.01
2022-12-03T21:29:21.955Z,80.16
2022-12-03T21:32:28.195Z,80.01
2022-12-03T21:36:00.890Z,80.50
2022-12-03T21:39:32.852Z,80.33
2022-12-03T21:43:09.994Z,80.36
2022-12-03T21:47:10.569Z,80.82
2022-12-03T21:49:59.196Z,80.80
2022-12-03T21:53:03.101Z,80.88
2022-12-03T21:56:34.072Z,80.93
2022-12-03T21:59:58.061Z,80.69
2022-12-03T22:03:14.219Z,80.64
2022-12-03T22:06:25.660Z,80.55
2022-12-03T22:09:35.366Z,81.02
2022-12-03T22:13:00.118Z,81.04
2022-12-03T22:16:06.604Z,80.81
2022-12-03T22:19:10.650Z,80.56
2022-12-03T22:22:16.364Z,80.38
2022-12-03T22:25:23.984Z,80.58
2022-12-03T22:28:40.080Z,80.18
2022-12-03T22:31:46.158Z,79.94
2022-12-03T22:34:50.222Z,80.09
2022-12-03T22:38:04.594Z,79.57
2022-12-03T22:41:25.008Z,79.59
2022-12-03T22:44:44.714Z,79.24
2022-12-03T22:47:47.859Z,79.58
2022-12-03T22:50:57.313Z,79.54
2022-12-03T22:54:08.280Z,79.41
2022-12-03T22:57:30.139Z,79.71
2022-12-03T23:01:02.522Z,79.49
2022-12-03T23:04:38.689Z,79.76
2022-12-03T23:08:15.176Z,79.80
2022-12-03T23:11:48.095Z,79.12
2022-12-03T23:15:05.460Z,79.99
2022-12-03T23:18:31.527Z,80.13
2022-12-03T23:21:48.819Z,79.76
2022-12-03T23:25:08.666Z,79.49
2022-12-03T23:28:34.647Z,79.63
2022-12-03T23:32:05.610Z,79.16
2022-12-03T23:35:22.620Z,79.17
2022-12-03T23:38:43.536Z,79.62
2022-12-03T23:42:08.756Z,79.40
2022-12-03T23:45:27.539Z,79.97
2022-12-03T23:48:50.612Z,80.08
2022-12-03T23:52:12.763Z,79.78
2022-12-03T23:55:38.100Z,79.84
2022-12-03T23:58:56.623Z,80.09
